Time;durP1;ratioP1;P1;durP2;ratioP2;P2;SDS_P1;SDS_P2;PMS_P1;PMS_P2;Temp;Humidity;BMP_temperature;BMP_pressure;BME280_temperature;BME280_humidity;BME280_pressure;Samples;Min_cycle;Max_cycle;Signal;HPM_P1;HPM_P2
2021/03/12 00:00:22;;;;;;;17.45;10.32;;;;;;;5.88;66.89;96794.03;1785208;80;21018;-72
2021/03/12 00:02:50;;;;;;;13.03;5.95;;;;;;;5.83;67.10;96802.15;1785204;80;21106;-71
2021/03/12 00:05:16;;;;;;;12.05;6.83;;;;;;;5.89;67.23;96830.59;1785171;80;21031;-70
2021/03/12 00:07:43;;;;;;;11.63;8.18;;;;;;;5.91;67.42;96806.17;1785289;80;21463;-71
2021/03/12 00:10:13;;;;;;;13.48;8.43;;;;;;;6.01;66.98;96791.84;1785341;80;21492;-70
2021/03/12 00:12:39;;;;;;;11.05;6.83;;;;;;;5.94;66.89;96782.20;1785230;80;21079;-71
2021/03/12 00:15:09;;;;;;;15.18;9.05;;;;;;;5.98;66.67;96797.22;1785303;80;22031;-71
2021/03/12 00:17:35;;;;;;;13.95;7.72;;;;;;;5.93;66.75;96791.89;1784721;80;21099;-71
2021/03/12 00:20:06;;;;;;;13.78;7.55;;;;;;;5.91;66.64;96806.97;1785288;80;21102;-71
2021/03/12 00:22:32;;;;;;;12.65;7.80;;;;;;;5.91;66.65;96808.31;1784381;80;21039;-71
2021/03/12 00:24:58;;;;;;;13.00;8.00;;;;;;;5.91;66.65;96826.33;1785250;80;21122;-71
2021/03/12 00:27:24;;;;;;;9.00;5.25;;;;;;;5.89;66.70;96819.83;1785329;80;22186;-71
2021/03/12 00:29:50;;;;;;;11.00;7.00;;;;;;;5.91;66.74;96803.48;1785147;80;21063;-71
2021/03/12 00:32:16;;;;;;;10.58;6.40;;;;;;;5.91;67.04;96824.45;1785285;80;21020;-71
2021/03/12 00:34:43;;;;;;;10.48;6.83;;;;;;;5.92;67.10;96828.73;1785193;80;21075;-71
2021/03/12 00:37:09;;;;;;;12.35;7.50;;;;;;;5.93;66.79;96822.27;1785308;80;21455;-71
2021/03/12 00:39:35;;;;;;;11.68;6.35;;;;;;;5.92;66.81;96814.49;1785244;80;22020;-71
2021/03/12 00:42:01;;;;;;;10.50;6.83;;;;;;;5.96;66.75;96806.66;1785043;78;21098;-71
2021/03/12 00:44:27;;;;;;;10.88;6.55;;;;;;;6.01;66.76;96796.68;1785285;80;21550;-71
2021/03/12 00:46:53;;;;;;;12.60;7.58;;;;;;;5.94;68.09;96784.89;1785174;80;21039;-71
2021/03/12 00:49:22;;;;;;;11.80;5.85;;;;;;;5.78;69.16;96786.58;1785308;80;21122;-71
2021/03/12 00:51:48;;;;;;;9.58;6.75;;;;;;;5.61;70.54;96778.34;1785273;80;21265;-71
2021/03/12 00:54:14;;;;;;;11.15;7.22;;;;;;;5.38;72.73;96780.34;1785126;80;21052;-71
2021/03/12 00:56:40;;;;;;;13.32;8.30;;;;;;;5.20;73.33;96778.28;1785227;80;21070;-71
2021/03/12 00:59:07;;;;;;;10.70;6.50;;;;;;;5.03;74.82;96768.67;1785228;80;21419;-71
2021/03/12 01:01:33;;;;;;;8.88;5.28;;;;;;;4.95;74.57;96775.95;1785191;80;21058;-71
2021/03/12 01:03:59;;;;;;;13.65;7.30;;;;;;;4.81;75.91;96782.45;1785229;80;21586;-71
2021/03/12 01:06:25;;;;;;;13.83;7.33;;;;;;;4.67;76.70;96798.03;1785171;80;21380;-71
2021/03/12 01:08:51;;;;;;;13.13;8.45;;;;;;;4.60;75.66;96810.92;1785297;80;21538;-71
2021/03/12 01:11:17;;;;;;;11.25;7.40;;;;;;;4.51;76.71;96805.30;1785271;80;21431;-71
2021/03/12 01:13:43;;;;;;;12.05;8.18;;;;;;;4.48;76.93;96815.23;1785194;80;21126;-71
2021/03/12 01:16:09;;;;;;;13.60;9.23;;;;;;;4.40;76.35;96819.80;1785253;80;21309;-71
2021/03/12 01:18:36;;;;;;;13.75;8.80;;;;;;;4.37;76.98;96819.00;1785126;80;21126;-71
2021/03/12 01:21:02;;;;;;;16.05;8.18;;;;;;;4.29;77.08;96817.66;1785225;80;21511;-71
2021/03/12 01:23:28;;;;;;;12.98;8.75;;;;;;;4.27;78.00;96812.27;1785296;80;21554;-71
2021/03/12 01:25:54;;;;;;;14.30;10.20;;;;;;;4.24;77.47;96831.06;1785309;80;21380;-71
2021/03/12 01:28:20;;;;;;;15.25;8.08;;;;;;;4.22;77.98;96843.94;1785183;80;22122;-71
2021/03/12 01:30:48;;;;;;;12.13;7.83;;;;;;;4.21;77.83;96856.54;1785115;80;21035;-71
2021/03/12 01:33:15;;;;;;;13.43;9.57;;;;;;;4.20;78.45;96873.70;1785496;80;21420;-71
2021/03/12 01:35:41;;;;;;;13.83;9.10;;;;;;;4.21;77.51;96872.62;1785155;80;21114;-71
2021/03/12 01:38:07;;;;;;;16.25;8.93;;;;;;;4.24;77.72;96886.83;1785275;80;21129;-71
2021/03/12 01:40:37;;;;;;;13.62;8.65;;;;;;;4.27;77.86;96891.39;1785089;80;21247;-71
2021/03/12 01:43:04;;;;;;;15.48;9.60;;;;;;;4.26;78.45;96878.52;1785034;80;21129;-72
2021/03/12 01:45:41;;;;;;;13.53;8.98;;;;;;;4.26;78.39;96869.13;1785151;80;21098;-72
2021/03/12 01:48:15;;;;;;;14.13;8.10;;;;;;;4.23;78.56;96874.50;1782780;80;21487;-72
2021/03/12 01:50:46;;;;;;;13.30;8.38;;;;;;;4.20;79.19;96871.02;1785189;80;21107;-72
2021/03/12 01:53:14;;;;;;;15.65;9.15;;;;;;;4.17;79.38;96874.22;1785197;80;21190;-72
2021/03/12 01:55:40;;;;;;;13.13;8.23;;;;;;;4.16;80.77;96866.45;1785159;80;21090;-72
2021/03/12 01:58:06;;;;;;;10.05;6.95;;;;;;;4.17;79.99;96855.45;1785144;80;21036;-72
2021/03/12 02:00:33;;;;;;;14.58;8.28;;;;;;;4.18;79.93;96858.93;1785095;80;21043;-73
2021/03/12 02:02:59;;;;;;;14.40;9.28;;;;;;;4.15;80.54;96878.24;1785174;80;21456;-72
2021/03/12 02:05:26;;;;;;;11.08;7.35;;;;;;;4.13;80.56;96878.52;1785163;80;21966;-73
2021/03/12 02:07:53;;;;;;;11.90;7.83;;;;;;;4.11;80.39;96884.69;1785133;80;21138;-72
2021/03/12 02:10:24;;;;;;;13.93;8.35;;;;;;;4.09;80.36;96898.06;1785229;80;21130;-72
2021/03/12 02:13:04;;;;;;;14.30;9.70;;;;;;;4.07;80.25;96886.27;1785206;80;21091;-71
2021/03/12 02:15:36;;;;;;;14.20;8.45;;;;;;;4.01;80.18;96883.84;1784943;80;21087;-71
2021/03/12 02:18:10;;;;;;;15.63;8.83;;;;;;;3.94;81.02;96855.44;1785160;80;21183;-71
2021/03/12 02:20:54;;;;;;;12.58;9.00;;;;;;;3.93;81.25;96850.31;1751586;80;21007;-71
2021/03/12 02:23:41;;;;;;;13.03;8.38;;;;;;;3.96;81.09;96857.84;1785220;80;21098;-70
2021/03/12 02:26:15;;;;;;;11.57;7.47;;;;;;;3.94;81.08;96864.01;1785170;80;21083;-72
2021/03/12 02:28:42;;;;;;;10.10;5.62;;;;;;;3.95;80.82;96861.59;1784902;80;21142;-72
2021/03/12 02:31:09;;;;;;;10.78;5.80;;;;;;;3.93;80.77;96852.48;1785168;80;21400;-72
2021/03/12 02:33:35;;;;;;;13.88;8.88;;;;;;;3.93;80.77;96849.80;1785025;80;21039;-72
2021/03/12 02:36:01;;;;;;;10.93;5.60;;;;;;;3.90;80.89;96852.19;1785142;80;21082;-72
2021/03/12 02:38:29;;;;;;;16.27;7.95;;;;;;;3.95;80.81;96837.47;1785099;80;21110;-72
2021/03/12 02:40:55;;;;;;;8.85;5.12;;;;;;;3.94;80.92;96838.01;1785131;80;21003;-72
2021/03/12 02:43:23;;;;;;;11.75;7.40;;;;;;;3.99;81.12;96837.73;1785048;80;21183;-72
2021/03/12 02:45:49;;;;;;;12.53;7.55;;;;;;;3.95;80.23;96829.44;1785064;80;21094;-72
2021/03/12 02:48:16;;;;;;;6.75;4.25;;;;;;;3.96;80.42;96847.13;1751498;80;21444;-72
2021/03/12 02:50:42;;;;;;;11.05;9.70;;;;;;;4.02;81.08;96851.43;1785104;80;21106;-72
2021/03/12 02:53:08;;;;;;;10.93;8.13;;;;;;;4.03;81.03;96846.88;1785328;80;21114;-72
2021/03/12 02:55:36;;;;;;;11.80;7.67;;;;;;;4.04;80.86;96841.23;1756924;80;21184;-72
2021/03/12 02:58:02;;;;;;;10.70;7.22;;;;;;;4.03;80.79;96850.35;1785317;80;21105;-72
2021/03/12 03:00:28;;;;;;;8.35;4.50;;;;;;;4.07;80.82;96855.98;1785253;80;21118;-72
2021/03/12 03:02:54;;;;;;;9.40;5.03;;;;;;;4.07;81.17;96854.09;1785263;80;21075;-72
2021/03/12 03:05:21;;;;;;;8.15;5.10;;;;;;;4.09;81.13;96838.55;1785320;80;21070;-72
2021/03/12 03:07:47;;;;;;;6.97;4.20;;;;;;;4.12;81.27;96819.80;1785246;80;21193;-72
2021/03/12 03:10:13;;;;;;;8.55;5.20;;;;;;;4.17;81.05;96826.48;1785309;80;21412;-72
2021/03/12 03:12:40;;;;;;;10.35;6.47;;;;;;;4.18;80.83;96826.75;1756787;80;21091;-70
2021/03/12 03:15:07;;;;;;;12.15;8.28;;;;;;;4.14;80.88;96837.22;1785376;80;21007;-70
2021/03/12 03:17:36;;;;;;;10.20;7.72;;;;;;;4.11;80.39;96828.38;1785277;80;21020;-70
2021/03/12 03:20:03;;;;;;;;;;;;;;;4.12;80.64;96838.03;1787887;80;21265;-71
2021/03/12 03:22:29;;;;;;;8.48;5.80;;;;;;;4.14;80.78;96843.13;1785200;80;20210;-71
2021/03/12 03:24:55;;;;;;;7.05;5.80;;;;;;;4.22;80.68;96831.87;1785353;80;21436;-71
2021/03/12 03:27:21;;;;;;;9.48;5.58;;;;;;;4.24;80.37;96824.35;1785249;80;21105;-71
2021/03/12 03:29:57;;;;;;;6.65;5.12;;;;;;;4.28;80.25;96828.13;1785291;80;21106;-71
2021/03/12 03:32:23;;;;;;;9.55;5.67;;;;;;;4.26;80.08;96839.63;1785252;80;21128;-71
2021/03/12 03:34:49;;;;;;;11.60;6.60;;;;;;;4.27;80.14;96835.88;1785220;80;21071;-71
2021/03/12 03:37:16;;;;;;;7.87;4.47;;;;;;;4.38;79.77;96826.78;1785241;80;21016;-71
2021/03/12 03:39:42;;;;;;;6.10;4.05;;;;;;;4.39;80.00;96832.95;1785219;80;21098;-71
2021/03/12 03:42:09;;;;;;;10.85;7.78;;;;;;;4.45;80.13;96826.52;1784340;80;21554;-71
2021/03/12 03:44:35;;;;;;;7.37;4.90;;;;;;;4.39;80.05;96840.99;1756894;80;21213;-71
2021/03/12 03:47:03;;;;;;;5.17;3.72;;;;;;;4.46;80.20;96846.90;1780857;80;21491;-71
2021/03/12 03:49:30;;;;;;;6.22;4.17;;;;;;;4.53;80.18;96827.31;1780813;80;21086;-71
2021/03/12 03:51:57;;;;;;;5.72;3.47;;;;;;;4.57;80.09;96831.05;1780912;80;21103;-71
2021/03/12 03:54:24;;;;;;;8.30;4.90;;;;;;;4.60;79.74;96825.67;1780797;80;21025;-71
2021/03/12 03:56:50;;;;;;;4.65;3.15;;;;;;;4.62;79.48;96830.26;1780940;80;21202;-71
2021/03/12 03:59:16;;;;;;;4.17;3.25;;;;;;;4.65;79.60;96825.69;1780774;80;21031;-71
2021/03/12 04:01:42;;;;;;;5.25;3.30;;;;;;;4.64;79.58;96831.59;1780824;80;21106;-71
2021/03/12 04:04:09;;;;;;;4.92;3.52;;;;;;;4.66;80.21;96829.44;1780694;80;21480;-71
2021/03/12 04:06:35;;;;;;;5.37;3.60;;;;;;;4.72;79.71;96839.63;1780831;80;21547;-71
2021/03/12 04:09:01;;;;;;;4.72;3.50;;;;;;;4.73;79.92;96827.28;1780763;80;21209;-71
2021/03/12 04:11:28;;;;;;;4.95;3.42;;;;;;;4.74;79.82;96832.91;1762155;81;21124;-71
2021/03/12 04:13:55;;;;;;;4.75;2.83;;;;;;;4.77;79.80;96835.58;1780801;80;21032;-71
2021/03/12 04:16:21;;;;;;;4.40;3.52;;;;;;;4.81;79.70;96842.03;1736307;81;21139;-71
2021/03/12 04:18:47;;;;;;;5.00;3.67;;;;;;;4.77;79.72;96835.58;1762188;80;21512;-71
2021/03/12 04:21:15;;;;;;;10.60;6.62;;;;;;;4.74;79.72;96849.02;1780791;80;21201;-71
2021/03/12 04:23:41;;;;;;;7.87;5.17;;;;;;;4.71;79.53;96837.48;1762218;80;21540;-71
2021/03/12 04:26:07;;;;;;;9.28;5.55;;;;;;;4.71;79.46;96835.34;1780828;80;21142;-71
2021/03/12 04:28:34;;;;;;;6.45;3.75;;;;;;;4.68;79.51;96839.89;1762156;81;21037;-71
2021/03/12 04:31:00;;;;;;;6.58;4.67;;;;;;;4.68;79.72;96851.97;1780873;80;21134;-71
2021/03/12 04:33:27;;;;;;;7.78;5.62;;;;;;;4.63;80.00;96854.67;1762190;81;21308;-71
2021/03/12 04:35:53;;;;;;;10.05;5.60;;;;;;;4.60;79.49;96868.06;1780721;80;21408;-71
2021/03/12 04:38:19;;;;;;;19.20;11.22;;;;;;;4.55;79.72;96868.63;1762182;81;21123;-71
2021/03/12 04:40:45;;;;;;;13.15;8.95;;;;;;;4.52;79.78;96879.34;1780722;80;21039;-71
2021/03/12 04:43:12;;;;;;;20.80;11.50;;;;;;;4.52;79.78;96894.09;1756224;81;21058;-71
2021/03/12 04:45:38;;;;;;;16.20;7.92;;;;;;;4.52;80.43;96898.92;1732435;82;21156;-71
2021/03/12 04:48:05;;;;;;;14.23;7.22;;;;;;;4.56;80.55;96901.08;1732369;82;21066;-71
2021/03/12 04:50:31;;;;;;;13.30;7.55;;;;;;;4.61;80.62;96904.55;1732454;82;21133;-71
2021/03/12 04:52:58;;;;;;;11.55;6.95;;;;;;;4.64;80.44;96908.60;1785192;80;21154;-71
2021/03/12 04:55:24;;;;;;;12.98;10.72;;;;;;;4.64;80.53;96904.04;1785237;80;21427;-71
2021/03/12 04:57:50;;;;;;;29.65;24.72;;;;;;;4.65;80.32;96900.28;1785304;80;21193;-71
2021/03/12 05:00:18;;;;;;;18.95;10.75;;;;;;;4.66;80.65;96892.49;1785175;80;21036;-71
2021/03/12 05:02:45;;;;;;;10.00;6.22;;;;;;;4.67;80.76;96877.20;1785394;80;21054;-71
2021/03/12 05:05:12;;;;;;;9.63;6.17;;;;;;;4.68;80.77;96873.44;1785292;80;21079;-71
2021/03/12 05:07:38;;;;;;;10.00;7.30;;;;;;;4.74;80.53;96873.70;1785206;80;21194;-71
2021/03/12 05:10:07;;;;;;;15.98;8.15;;;;;;;4.76;80.38;96878.27;1785201;80;21257;-71
2021/03/12 05:12:33;;;;;;;12.55;9.23;;;;;;;4.73;80.55;96877.47;1785242;80;21503;-71
2021/03/12 05:14:59;;;;;;;11.15;7.12;;;;;;;4.71;80.60;96897.06;1785261;80;21138;-71
2021/03/12 05:17:26;;;;;;;12.15;8.13;;;;;;;4.69;80.33;96890.60;1785107;80;21098;-71
2021/03/12 05:19:52;;;;;;;14.13;8.33;;;;;;;4.69;80.35;96889.26;1785246;80;21420;-71
2021/03/12 05:22:18;;;;;;;10.88;5.87;;;;;;;4.70;80.25;96893.58;1785214;80;21142;-71
2021/03/12 05:24:44;;;;;;;12.45;6.95;;;;;;;4.73;80.22;96901.08;1785179;80;21042;-71
2021/03/12 05:27:11;;;;;;;11.70;7.50;;;;;;;4.75;80.51;96907.52;1785194;80;21139;-71
2021/03/12 05:29:37;;;;;;;13.28;9.10;;;;;;;4.79;80.59;96913.44;1785107;80;21114;-71
2021/03/12 05:32:05;;;;;;;12.30;7.75;;;;;;;4.85;80.63;96914.75;1785274;80;21118;-71
2021/03/12 05:34:31;;;;;;;12.98;7.80;;;;;;;4.88;80.58;96921.75;1785211;80;21181;-71
2021/03/12 05:36:57;;;;;;;13.03;8.93;;;;;;;4.95;80.43;96908.83;1785213;80;21575;-71
2021/03/12 05:39:23;;;;;;;13.15;9.18;;;;;;;4.95;80.28;96922.80;1785161;80;21055;-71
2021/03/12 05:41:49;;;;;;;16.05;10.63;;;;;;;4.97;79.95;96915.30;1785191;80;21130;-71
2021/03/12 05:44:19;;;;;;;12.07;7.97;;;;;;;5.00;79.98;96917.44;1788532;80;21023;-71
2021/03/12 05:46:45;;;;;;;;;;;;;;;5.03;79.75;96912.86;1791495;80;21262;-72
2021/03/12 05:49:13;;;;;;;14.85;8.28;;;;;;;5.05;80.00;96922.27;1788773;80;20219;-72
2021/03/12 05:51:39;;;;;;;12.47;7.95;;;;;;;5.08;79.75;96932.45;1788916;80;21071;-72
2021/03/12 05:54:06;;;;;;;10.45;6.45;;;;;;;5.13;79.80;96941.06;1788777;80;21039;-72
2021/03/12 05:56:33;;;;;;;20.05;9.65;;;;;;;5.18;79.62;96946.95;1788768;80;21091;-72
2021/03/12 05:58:59;;;;;;;15.35;8.10;;;;;;;5.24;79.53;96941.84;1788793;80;21206;-72
2021/03/12 06:01:26;;;;;;;11.70;7.00;;;;;;;5.24;79.44;96931.09;1788632;80;21145;-72
2021/03/12 06:03:52;;;;;;;12.88;8.25;;;;;;;5.26;79.29;96935.11;1788670;80;21047;-72
2021/03/12 06:06:18;;;;;;;14.45;8.85;;;;;;;5.26;79.13;96945.06;1788878;80;21570;-72
2021/03/12 06:08:44;;;;;;;14.78;8.88;;;;;;;5.26;78.82;96948.55;1788713;80;21419;-72
2021/03/12 06:11:11;;;;;;;14.05;7.90;;;;;;;5.26;78.91;96968.69;1788767;80;22132;-72
2021/03/12 06:13:53;;;;;;;13.32;7.97;;;;;;;5.25;78.94;96972.45;1788762;80;21050;-71
2021/03/12 06:16:30;;;;;;;13.80;8.15;;;;;;;5.25;78.94;96992.60;1788792;80;21094;-71
2021/03/12 06:19:19;;;;;;;9.30;6.00;;;;;;;5.27;79.12;96999.04;1788826;80;21043;-71
2021/03/12 06:21:47;;;;;;;11.57;7.60;;;;;;;5.30;78.95;97006.04;1788879;80;21489;-71
2021/03/12 06:24:28;;;;;;;10.27;7.40;;;;;;;5.33;78.92;97013.55;1789042;80;21190;-71
2021/03/12 06:26:54;;;;;;;14.43;7.92;;;;;;;5.43;78.79;97020.79;1788680;80;21067;-72
2021/03/12 06:29:37;;;;;;;11.78;8.13;;;;;;;5.56;78.63;97028.30;1788780;80;21491;-72
2021/03/12 06:32:05;;;;;;;11.15;8.15;;;;;;;5.65;78.54;97028.56;1788820;80;21078;-71
2021/03/12 06:34:32;;;;;;;9.08;5.33;;;;;;;5.68;78.29;97018.59;1788825;80;21072;-71
2021/03/12 06:36:58;;;;;;;21.17;14.35;;;;;;;5.72;77.89;97010.24;1788733;80;21181;-71
2021/03/12 06:39:33;;;;;;;21.80;14.13;;;;;;;5.74;77.90;97024.78;1788323;80;37521;-71
2021/03/12 06:41:59;;;;;;;16.57;10.13;;;;;;;5.80;77.56;97034.42;1788689;80;21138;-71
2021/03/12 06:44:32;;;;;;;11.43;7.78;;;;;;;5.83;77.64;97032.55;1786013;80;21404;-71
2021/03/12 06:46:59;;;;;;;11.22;8.35;;;;;;;5.91;77.53;97044.93;1785191;80;21459;-72
2021/03/12 06:49:26;;;;;;;12.23;7.12;;;;;;;6.01;77.29;97054.05;1785147;80;21083;-71
2021/03/12 06:52:03;;;;;;;21.73;17.17;;;;;;;6.10;77.21;97055.09;1785039;80;21083;-72
2021/03/12 06:54:32;;;;;;;15.70;9.18;;;;;;;6.16;76.89;97050.77;1785144;80;21086;-71
2021/03/12 06:56:58;;;;;;;9.13;5.62;;;;;;;6.15;76.52;97069.34;1785256;80;21094;-71
2021/03/12 06:59:32;;;;;;;11.53;6.78;;;;;;;6.19;75.86;97062.86;1785111;80;21033;-71
2021/03/12 07:02:04;;;;;;;13.98;8.43;;;;;;;6.19;75.51;97058.82;1785282;80;22047;-70
2021/03/12 07:04:30;;;;;;;13.05;7.03;;;;;;;6.23;75.42;97057.98;1756438;80;21095;-71
2021/03/12 07:06:58;;;;;;;11.35;7.45;;;;;;;6.34;75.51;97074.11;1785110;80;21123;-71
2021/03/12 07:09:26;;;;;;;12.82;9.78;;;;;;;6.45;74.67;97068.41;1785151;80;21415;-71
2021/03/12 07:12:00;;;;;;;11.68;10.25;;;;;;;6.45;74.78;97069.75;1785231;80;21091;-71
2021/03/12 07:14:27;;;;;;;10.95;6.42;;;;;;;6.55;74.37;97071.58;1785058;80;21203;-71
2021/03/12 07:16:53;;;;;;;9.45;6.17;;;;;;;6.69;73.64;97079.33;1785046;80;21087;-71
2021/03/12 07:19:20;;;;;;;10.80;6.03;;;;;;;6.82;73.00;97073.06;1785141;80;21166;-71
2021/03/12 07:21:50;;;;;;;13.55;7.67;;;;;;;6.75;72.85;97062.08;1785065;80;21107;-71
2021/03/12 07:24:22;;;;;;;10.05;8.45;;;;;;;6.66;72.99;97088.48;1785135;80;21031;-70
2021/03/12 07:26:51;;;;;;;9.50;6.65;;;;;;;6.58;73.59;97091.75;1785140;80;21230;-71
2021/03/12 07:29:18;;;;;;;13.65;10.08;;;;;;;6.49;73.91;97096.39;1785215;80;21135;-71
2021/03/12 07:31:47;;;;;;;12.60;6.90;;;;;;;6.37;74.12;97109.34;1785119;80;21468;-71
2021/03/12 07:34:19;;;;;;;10.85;6.72;;;;;;;6.28;74.02;97107.48;1755731;80;21039;-71
2021/03/12 07:36:50;;;;;;;10.98;6.42;;;;;;;6.28;74.06;97104.25;1785231;80;21464;-71
2021/03/12 07:39:25;;;;;;;20.20;9.03;;;;;;;6.38;74.06;97109.59;1785101;80;21211;-71
2021/03/12 07:41:52;;;;;;;11.55;7.03;;;;;;;6.58;73.59;97112.77;1783630;80;21519;-71
2021/03/12 07:44:20;;;;;;;21.97;9.63;;;;;;;6.93;73.32;97117.17;1785224;80;21115;-71
2021/03/12 07:46:51;;;;;;;10.00;5.80;;;;;;;7.32;72.99;97120.42;1785601;80;21530;-71
2021/03/12 07:49:33;;;;;;;14.50;12.28;;;;;;;7.98;71.73;97118.54;1785215;80;21549;-70
2021/03/12 07:52:01;;;;;;;10.15;6.95;;;;;;;9.49;68.67;97122.37;1785291;80;21250;-70
2021/03/12 07:54:44;;;;;;;10.15;6.30;;;;;;;9.92;67.03;97137.65;1785109;80;21102;-70
2021/03/12 07:57:17;;;;;;;10.08;6.22;;;;;;;9.41;65.55;97143.31;1785359;80;21106;-70
2021/03/12 07:59:55;;;;;;;8.45;5.60;;;;;;;8.71;66.48;97149.90;1770349;80;21079;-70
2021/03/12 08:02:21;;;;;;;8.38;5.83;;;;;;;8.13;67.51;97153.48;1785671;80;21475;-71
2021/03/12 08:04:48;;;;;;;13.90;6.22;;;;;;;7.71;68.98;97167.59;1785190;80;21257;-71
2021/03/12 08:07:23;;;;;;;11.75;6.53;;;;;;;7.34;69.66;97164.06;1785161;80;21492;-71
2021/03/12 08:09:54;;;;;;;9.95;6.22;;;;;;;6.94;70.42;97161.88;1785196;80;21102;-70
2021/03/12 08:12:32;;;;;;;16.37;8.48;;;;;;;6.69;71.57;97165.48;1785398;80;21508;-71
2021/03/12 08:15:19;;;;;;;13.43;8.83;;;;;;;6.55;71.60;97159.06;1785273;80;21083;-71
2021/03/12 08:18:03;;;;;;;9.83;6.15;;;;;;;6.50;71.96;97161.25;1751952;80;21259;-71
2021/03/12 08:20:43;;;;;;;12.47;6.78;;;;;;;6.40;74.07;97166.63;1785132;80;21098;-71
2021/03/12 08:23:14;;;;;;;16.50;9.73;;;;;;;6.29;75.99;97169.63;1785212;80;21114;-72
2021/03/12 08:25:48;;;;;;;12.33;7.70;;;;;;;6.29;75.73;97166.40;1784792;80;21498;-71
2021/03/12 08:28:19;;;;;;;16.60;8.88;;;;;;;6.22;76.19;97168.56;1785298;80;21063;-71
2021/03/12 08:30:47;;;;;;;12.10;7.78;;;;;;;6.17;76.53;97178.00;1785210;80;21183;-71
2021/03/12 08:33:27;;;;;;;14.68;8.05;;;;;;;6.10;76.23;97174.23;1785158;80;21083;-71
2021/03/12 08:35:56;;;;;;;12.63;8.35;;;;;;;6.12;75.65;97186.07;1785321;80;21047;-71
2021/03/12 08:38:28;;;;;;;18.17;12.13;;;;;;;6.10;75.36;97182.31;1785321;80;21508;-71
2021/03/12 08:41:17;;;;;;;25.52;11.80;;;;;;;6.16;75.14;97187.96;1785225;80;21019;-72
2021/03/12 08:43:47;;;;;;;21.45;12.78;;;;;;;6.29;74.79;97184.43;1783900;80;21186;-71
2021/03/12 08:46:16;;;;;;;22.20;13.95;;;;;;;6.44;75.05;97177.13;1778019;80;21122;-72
2021/03/12 08:48:45;;;;;;;22.07;13.10;;;;;;;6.49;74.87;97178.48;1777929;80;21083;-72
2021/03/12 08:51:20;;;;;;;18.73;11.40;;;;;;;6.55;74.99;97185.98;1778264;80;21535;-72
2021/03/12 08:53:56;;;;;;;26.30;15.45;;;;;;;6.56;75.22;97194.86;1777998;80;21091;-71
2021/03/12 08:56:31;;;;;;;23.42;13.03;;;;;;;6.57;75.32;97195.13;1778077;80;21194;-71
2021/03/12 08:58:57;;;;;;;71.97;34.60;;;;;;;6.51;75.42;97202.42;1777924;80;21186;-71
2021/03/12 09:01:25;;;;;;;13.35;8.20;;;;;;;6.44;75.89;97205.94;1777960;80;21079;-71
2021/03/12 09:03:55;;;;;;;56.35;30.52;;;;;;;6.33;75.70;97207.05;1777984;80;21067;-70
2021/03/12 09:06:29;;;;;;;28.67;16.52;;;;;;;6.28;75.76;97215.91;1777980;80;21503;-71
2021/03/12 09:08:55;;;;;;;22.80;12.58;;;;;;;6.16;77.22;97217.55;1777992;80;21263;-71
2021/03/12 09:11:23;;;;;;;16.97;9.85;;;;;;;6.04;76.70;97217.00;1778048;80;21111;-71
2021/03/12 09:13:50;;;;;;;15.87;10.23;;;;;;;5.85;78.74;97223.44;1778305;80;21507;-71
2021/03/12 09:16:22;;;;;;;13.93;8.90;;;;;;;5.79;76.86;97229.06;1778082;80;21082;-71
2021/03/12 09:18:49;;;;;;;22.02;16.62;;;;;;;5.65;78.75;97225.58;1778042;80;21099;-71
2021/03/12 09:21:21;;;;;;;13.08;8.00;;;;;;;5.56;78.18;97245.19;1778017;80;21453;-71
2021/03/12 09:23:59;;;;;;;15.48;8.90;;;;;;;5.27;80.19;97262.28;1777908;80;21106;-72
2021/03/12 09:26:28;;;;;;;5.47;3.60;;;;;;;4.91;80.13;97289.00;1778033;80;21071;-70
2021/03/12 09:28:57;;;;;;;4.42;2.70;;;;;;;4.50;79.42;97296.80;1778125;80;21484;-70
2021/03/12 09:31:37;;;;;;;;;;;;;;;4.34;80.42;97291.05;1780605;80;21095;-71
2021/03/12 09:34:04;;;;;;;10.15;4.85;;;;;;;4.30;79.47;97291.30;1777977;80;21260;-71
2021/03/12 09:36:42;;;;;;;11.18;5.85;;;;;;;4.41;78.89;97294.86;1778057;80;21530;-71
2021/03/12 09:39:21;;;;;;;12.93;6.92;;;;;;;4.55;78.65;97286.64;1778020;80;21300;-71
2021/03/12 09:41:59;;;;;;;10.55;5.97;;;;;;;4.86;78.04;97285.47;1777936;80;21578;-71
2021/03/12 09:44:26;;;;;;;19.70;10.10;;;;;;;5.10;77.52;97284.78;1780851;80;21043;-71
2021/03/12 09:47:05;;;;;;;8.88;5.65;;;;;;;5.34;76.91;97285.15;1785969;80;21468;-71
2021/03/12 09:49:38;;;;;;;11.33;7.05;;;;;;;5.71;77.15;97288.73;1786267;80;21511;-71
2021/03/12 09:52:16;;;;;;;9.43;6.17;;;;;;;5.91;77.61;97286.13;1786020;80;21066;-70
2021/03/12 09:54:43;;;;;;;9.30;6.45;;;;;;;6.00;77.12;97291.78;1785924;80;21125;-70
2021/03/12 09:57:17;;;;;;;8.13;5.95;;;;;;;6.07;76.93;97290.99;1761987;80;21078;-71
2021/03/12 09:59:52;;;;;;;7.50;4.10;;;;;;;6.11;76.94;97283.98;1786037;80;22062;-70
2021/03/12 10:02:18;;;;;;;10.15;6.03;;;;;;;6.12;76.39;97296.36;1763220;80;21146;-71
2021/03/12 10:04:47;;;;;;;10.95;5.58;;;;;;;6.17;76.46;97299.87;1786014;80;21420;-71
2021/03/12 10:07:16;;;;;;;7.05;4.12;;;;;;;6.25;75.63;97295.84;1786089;80;21071;-71
2021/03/12 10:09:47;;;;;;;17.35;10.98;;;;;;;6.38;75.26;97311.42;1786038;80;21464;-70
2021/03/12 10:12:25;;;;;;;8.93;5.60;;;;;;;6.36;75.42;97315.47;1785966;80;21098;-71
2021/03/12 10:14:57;;;;;;;9.05;4.22;;;;;;;6.36;75.16;97318.16;1785990;80;21074;-70
2021/03/12 10:17:27;;;;;;;6.90;3.90;;;;;;;6.35;74.44;97316.55;1781778;80;21078;-70
2021/03/12 10:20:03;;;;;;;16.62;10.98;;;;;;;6.33;74.10;97314.13;1785886;80;21022;-71
2021/03/12 10:22:41;;;;;;;7.22;4.30;;;;;;;6.38;74.27;97307.92;1786051;80;21083;-71
2021/03/12 10:25:39;;;;;;;14.25;7.65;;;;;;;6.56;73.85;97310.61;1785968;80;22060;-71
2021/03/12 10:28:18;;;;;;;11.90;7.73;;;;;;;6.59;73.48;97316.27;1786197;80;21058;-71
2021/03/12 10:30:49;;;;;;;16.32;10.50;;;;;;;6.71;73.21;97314.09;1785938;80;21169;-70
2021/03/12 10:33:23;;;;;;;5.95;3.98;;;;;;;6.96;72.90;97322.66;1786017;80;21078;-71
2021/03/12 10:35:52;;;;;;;4.90;2.65;;;;;;;7.19;72.01;97321.80;1785955;80;21098;-70
2021/03/12 10:38:21;;;;;;;;;;;;;;;7.41;70.83;97318.20;1788621;80;21251;-70
2021/03/12 10:41:00;;;;;;;6.00;4.33;;;;;;;7.38;69.72;97314.72;1786024;80;20498;-70
2021/03/12 10:43:28;;;;;;;8.78;5.17;;;;;;;7.40;70.08;97313.89;1786174;80;26917;-71
2021/03/12 10:46:04;;;;;;;4.70;3.58;;;;;;;7.44;70.27;97317.67;1779381;80;21027;-71
2021/03/12 10:48:45;;;;;;;6.92;4.72;;;;;;;7.49;69.68;97302.00;1777645;80;21114;-70
2021/03/12 10:51:16;;;;;;;11.12;7.92;;;;;;;7.49;69.37;97294.72;1777933;80;21430;-71
2021/03/12 10:53:50;;;;;;;12.25;6.92;;;;;;;7.53;69.93;97301.72;1777842;80;21098;-70
2021/03/12 10:56:17;;;;;;;11.22;7.60;;;;;;;7.63;67.73;97290.34;1778044;80;21491;-70
2021/03/12 10:58:43;;;;;;;10.78;5.72;;;;;;;7.70;68.89;97291.38;1777920;80;21103;-70
2021/03/12 11:01:30;;;;;;;8.10;5.17;;;;;;;7.75;69.20;97293.23;1777985;80;21075;-70
2021/03/12 11:03:58;;;;;;;7.03;5.05;;;;;;;7.69;68.38;97280.34;1777674;80;21193;-71
2021/03/12 11:06:35;;;;;;;5.20;3.43;;;;;;;7.75;68.98;97277.85;1778116;80;21047;-71
2021/03/12 11:09:06;;;;;;;6.75;3.45;;;;;;;7.80;67.76;97278.38;1777927;80;21708;-70
2021/03/12 11:11:33;;;;;;;8.20;5.42;;;;;;;7.88;67.38;97276.44;1777962;80;21047;-70
2021/03/12 11:13:59;;;;;;;5.78;2.50;;;;;;;7.99;67.67;97286.61;1778133;80;21290;-70
2021/03/12 11:16:25;;;;;;;6.75;3.70;;;;;;;8.03;65.64;97280.39;1778169;80;21261;-70
2021/03/12 11:18:51;;;;;;;19.98;12.25;;;;;;;8.02;65.72;97296.83;1778040;80;21122;-70
2021/03/12 11:21:18;;;;;;;17.42;11.00;;;;;;;8.14;66.10;97301.34;1778055;80;21516;-70
2021/03/12 11:23:45;;;;;;;7.33;5.10;;;;;;;8.22;64.10;97280.52;1778147;80;21567;-68
2021/03/12 11:26:13;;;;;;;4.12;2.58;;;;;;;8.34;64.54;97293.63;1778098;80;21110;-69
2021/03/12 11:28:39;;;;;;;7.72;5.47;;;;;;;8.52;63.17;97304.31;1778104;80;21183;-69
2021/03/12 11:31:05;;;;;;;7.08;5.80;;;;;;;8.69;63.26;97305.49;1778084;80;21531;-70
2021/03/12 11:33:32;;;;;;;4.20;2.87;;;;;;;9.09;63.11;97298.62;1778079;80;21115;-70
2021/03/12 11:36:00;;;;;;;4.03;2.42;;;;;;;9.47;62.68;97307.08;1778036;80;21166;-70
2021/03/12 11:38:29;;;;;;;3.40;2.35;;;;;;;9.89;60.57;97304.09;1778320;80;21067;-70
2021/03/12 11:40:56;;;;;;;6.40;3.92;;;;;;;10.40;60.35;97323.12;1778112;80;22027;-68
2021/03/12 11:43:23;;;;;;;4.17;3.30;;;;;;;10.40;60.35;97323.12;1778010;80;21095;-71
2021/03/12 11:45:49;;;;;;;4.10;2.30;;;;;;;10.32;58.45;97332.45;1778053;80;21135;-70